Arlington, Indiana
Current Conditions -  °F | °C
As of 10:53 PM on Saturday 25 Oct 2014 (Local Time) from KGEZ Reporting Station
Clear Clear  
Wind Chill: 63°   Ceiling: Unl
Heat Index: 63°   Visibility: 10mi
Dew Point: 45°   Wind: 9mph
Humidity: 52%   Direction: 290°WNW
Pressure: 29.94"   Gusts: NA
Location:  39.64°N, 85.57°W
Report Text: KGEZ 260253Z AUTO 29008KT 10SM CLR 17/07 A2994 RMK AO2 SLP137 T01720072 53007
Loading
Personal Weather Stations






























Interactive Weather Map
Tropical Storm Tracking
New forecast layout! Learn more

10-Day Weather Forecast

Advertisements
Track Severe Weather on mobile